Time;durP1;ratioP1;P1;durP2;ratioP2;P2;SDS_P1;SDS_P2;PMS_P1;PMS_P2;Temp;Humidity;BMP_temperature;BMP_pressure;BME280_temperature;BME280_humidity;BME280_pressure;Samples;Min_cycle;Max_cycle;Signal;HPM_P1;HPM_P2
2021/07/09 00:01:48;;;;;;;5.88;3.17;;;;;;;25.08;62.55;97760.00;5032120;28;20060;-78
2021/07/09 00:04:15;;;;;;;7.68;3.55;;;;;;;25.02;61.56;97764.38;5031305;28;20026;-77
2021/07/09 00:06:41;;;;;;;4.22;2.83;;;;;;;25.03;61.41;97751.97;5030342;28;20059;-77
2021/07/09 00:09:07;;;;;;;7.25;3.00;;;;;;;24.98;62.31;97749.56;5013951;28;20072;-77
2021/07/09 00:11:36;;;;;;;9.10;4.03;;;;;;;25.04;65.56;97750.78;5031583;28;20116;-77
2021/07/09 00:14:02;;;;;;;4.00;3.20;;;;;;;24.96;66.46;97743.56;5031351;28;20029;-78
2021/07/09 00:16:27;;;;;;;5.72;3.13;;;;;;;24.94;67.26;97743.16;5030521;28;20549;-77
2021/07/09 00:18:52;;;;;;;4.82;2.92;;;;;;;24.83;65.94;97734.72;5013383;28;20041;-77
2021/07/09 00:21:18;;;;;;;3.75;3.00;;;;;;;24.70;68.90;97741.03;5030830;28;20033;-78
2021/07/09 00:23:44;;;;;;;5.80;3.10;;;;;;;24.72;68.92;97744.22;5031378;28;20386;-77
2021/07/09 00:26:10;;;;;;;6.18;3.65;;;;;;;24.44;70.31;97740.13;5031211;28;20033;-77
2021/07/09 00:28:35;;;;;;;7.68;4.15;;;;;;;24.44;69.76;97733.72;5031686;28;20065;-77
2021/07/09 00:31:02;;;;;;;6.88;3.60;;;;;;;24.45;69.91;97750.13;5031756;28;20030;-78
2021/07/09 00:33:27;;;;;;;7.47;3.58;;;;;;;24.45;69.83;97757.72;5031281;28;20447;-79
2021/07/09 00:35:53;;;;;;;4.88;3.10;;;;;;;24.59;67.78;97762.59;5013045;28;20124;-77
2021/07/09 00:38:18;;;;;;;5.22;3.67;;;;;;;24.76;66.53;97764.66;5030850;28;20059;-77
2021/07/09 00:40:44;;;;;;;4.80;3.13;;;;;;;24.73;68.93;97745.84;5041851;28;20028;-78
2021/07/09 00:43:09;;;;;;;6.28;3.72;;;;;;;24.82;68.30;97754.72;5051150;28;20033;-78
2021/07/09 00:45:35;;;;;;;6.00;3.63;;;;;;;24.85;68.82;97753.91;5050620;28;20029;-77
2021/07/09 00:48:01;;;;;;;8.23;3.55;;;;;;;24.78;70.06;97748.25;5032234;28;20049;-77
2021/07/09 00:50:26;;;;;;;5.13;3.13;;;;;;;24.75;69.75;97737.84;5032864;28;20047;-78
2021/07/09 00:52:52;;;;;;;5.18;3.50;;;;;;;24.77;69.72;97741.88;5032821;28;20028;-77
2021/07/09 00:55:18;;;;;;;5.20;3.40;;;;;;;24.79;69.72;97739.47;5050921;28;20497;-76
2021/07/09 00:57:50;;;;;;;5.05;3.95;;;;;;;24.70;70.81;97741.84;5050950;28;20393;-77
2021/07/09 01:00:17;;;;;;;3.65;3.33;;;;;;;24.76;69.53;97751.47;5033002;28;20088;-79
2021/07/09 01:02:45;;;;;;;8.82;4.15;;;;;;;24.73;71.38;97740.25;5050978;28;20029;-78
2021/07/09 01:05:13;;;;;;;6.82;4.10;;;;;;;24.75;71.05;97735.84;5050123;28;20029;-77
2021/07/09 01:07:38;;;;;;;6.38;3.40;;;;;;;24.68;71.44;97738.66;5032818;28;20138;-78
2021/07/09 01:10:10;;;;;;;6.22;4.07;;;;;;;24.69;72.37;97739.41;5032578;28;20493;-78
2021/07/09 01:12:36;;;;;;;5.25;3.33;;;;;;;24.66;72.64;97732.63;5050643;28;20389;-79
2021/07/09 01:15:04;;;;;;;3.58;3.22;;;;;;;24.62;72.69;97722.63;5032882;28;20027;-77
2021/07/09 01:17:30;;;;;;;8.90;3.72;;;;;;;24.57;73.13;97721.00;5036592;28;20029;-77
2021/07/09 01:19:56;;;;;;;7.22;3.90;;;;;;;24.57;73.81;97731.38;5054511;28;20389;-77
2021/07/09 01:22:23;;;;;;;8.90;4.22;;;;;;;24.55;73.87;97740.19;5036329;28;20066;-78
2021/07/09 01:24:49;;;;;;;6.65;4.53;;;;;;;24.51;73.25;97720.56;5054779;28;20025;-78
2021/07/09 01:27:16;;;;;;;7.13;3.95;;;;;;;24.58;72.81;97735.78;5054233;28;20033;-77
2021/07/09 01:29:42;;;;;;;5.28;3.75;;;;;;;24.57;73.25;97732.19;5054907;28;20017;-78
2021/07/09 01:32:07;;;;;;;4.53;3.45;;;;;;;24.57;73.95;97740.59;5036561;28;20373;-77
2021/07/09 01:34:33;;;;;;;5.85;4.30;;;;;;;24.59;73.04;97732.59;5036534;28;20013;-77
2021/07/09 01:37:15;;;;;;;4.25;3.65;;;;;;;24.61;72.93;97727.41;5036080;28;20040;-79
2021/07/09 01:39:42;;;;;;;5.95;3.72;;;;;;;24.60;73.12;97727.78;5054404;28;20032;-78
2021/07/09 01:42:07;;;;;;;6.15;4.28;;;;;;;24.60;73.64;97730.59;5036061;28;20025;-78
2021/07/09 01:44:35;;;;;;;7.07;3.75;;;;;;;24.60;73.26;97736.19;5036022;28;20048;-78
2021/07/09 01:47:00;;;;;;;7.38;3.80;;;;;;;24.62;72.98;97725.44;5054177;28;20025;-76
2021/07/09 01:49:26;;;;;;;6.93;3.97;;;;;;;24.62;71.60;97731.03;5053853;28;20106;-76
2021/07/09 01:51:52;;;;;;;6.47;3.78;;;;;;;24.60;73.60;97730.59;5053380;28;20025;-78
2021/07/09 01:54:18;;;;;;;3.67;3.38;;;;;;;24.52;74.79;97724.19;5051091;28;20025;-78
2021/07/09 01:56:44;;;;;;;9.60;3.70;;;;;;;24.56;73.32;97724.97;5033709;28;20039;-78
2021/07/09 01:59:09;;;;;;;8.63;4.35;;;;;;;24.53;73.94;97720.97;5033755;28;20091;-77
2021/07/09 02:01:35;;;;;;;7.65;4.25;;;;;;;24.49;73.35;97727.75;5032820;28;20029;-78
2021/07/09 02:04:01;;;;;;;6.13;4.13;;;;;;;24.55;73.77;97742.16;5033437;28;20033;-77
2021/07/09 02:06:26;;;;;;;4.20;3.75;;;;;;;24.51;73.26;97739.34;5016141;28;20025;-77
2021/07/09 02:08:51;;;;;;;6.63;4.60;;;;;;;24.49;72.90;97739.75;5034029;28;20501;-79
2021/07/09 02:11:17;;;;;;;6.82;4.30;;;;;;;24.56;72.14;97741.75;5034006;28;20032;-80
2021/07/09 02:13:43;;;;;;;7.68;5.15;;;;;;;24.55;72.42;97736.56;5033608;28;20108;-77
2021/07/09 02:16:08;;;;;;;6.25;4.57;;;;;;;24.62;72.73;97739.41;5033286;28;20030;-78
2021/07/09 02:18:33;;;;;;;5.32;3.88;;;;;;;24.51;73.84;97734.56;5015391;28;20052;-78
2021/07/09 02:20:59;;;;;;;4.60;3.60;;;;;;;24.58;74.78;97749.78;5033403;28;20083;-77
2021/07/09 02:23:25;;;;;;;4.13;3.72;;;;;;;24.53;74.49;97748.94;5034566;28;20385;-78
2021/07/09 02:25:50;;;;;;;10.02;4.82;;;;;;;24.41;75.58;97746.50;5033526;28;20030;-77
2021/07/09 02:28:15;;;;;;;7.45;4.38;;;;;;;24.33;74.00;97750.47;5015276;28;20029;-77
2021/07/09 02:30:41;;;;;;;4.70;3.63;;;;;;;24.29;73.98;97746.81;5033455;28;20033;-77
2021/07/09 02:33:07;;;;;;;6.07;4.05;;;;;;;24.34;72.61;97756.84;5033496;28;20475;-77
2021/07/09 02:35:37;;;;;;;7.03;3.47;;;;;;;24.26;72.72;97756.00;5033110;28;20021;-77
2021/07/09 02:38:05;;;;;;;7.88;4.03;;;;;;;24.13;73.87;97751.91;5015294;28;20033;-79
2021/07/09 02:40:31;;;;;;;7.78;3.88;;;;;;;24.13;73.18;97751.91;5033053;28;20029;-78
2021/07/09 02:42:59;;;;;;;5.10;3.72;;;;;;;24.07;75.22;97749.84;5032748;28;20037;-78
2021/07/09 02:45:24;;;;;;;5.07;3.67;;;;;;;24.06;75.40;97754.63;5015397;28;20033;-77
2021/07/09 02:47:51;;;;;;;5.57;3.17;;;;;;;24.04;74.07;97756.22;5015003;28;20050;-79
2021/07/09 02:50:19;;;;;;;4.22;3.38;;;;;;;24.00;74.69;97751.41;5032777;28;20459;-78
2021/07/09 02:52:45;;;;;;;6.32;4.25;;;;;;;23.98;73.97;97764.16;5015121;28;20029;-79
2021/07/09 02:55:11;;;;;;;5.20;3.90;;;;;;;23.96;72.50;97758.94;5032908;28;20041;-78
2021/07/09 02:57:38;;;;;;;6.47;3.53;;;;;;;24.04;70.23;97754.22;5032791;28;20064;-78
2021/07/09 03:00:17;;;;;;;4.38;2.65;;;;;;;23.97;71.53;97766.16;5033234;28;20081;-79
2021/07/09 03:02:44;;;;;;;3.20;2.88;;;;;;;23.82;71.95;97758.03;5032518;28;20391;-78
2021/07/09 03:05:11;;;;;;;5.47;2.63;;;;;;;23.75;71.16;97757.97;5033410;28;20092;-77
2021/07/09 03:07:37;;;;;;;3.85;3.17;;;;;;;23.67;70.91;97757.13;5034695;28;20057;-76
2021/07/09 03:10:08;;;;;;;4.88;2.92;;;;;;;23.64;71.41;97766.28;5030623;28;20032;-77
2021/07/09 03:12:35;;;;;;;4.28;2.90;;;;;;;23.62;70.95;97768.66;5030941;28;20067;-78
2021/07/09 03:15:00;;;;;;;5.63;2.67;;;;;;;23.56;71.03;97761.00;5032214;28;20026;-77
2021/07/09 03:17:25;;;;;;;4.35;2.72;;;;;;;23.42;71.36;97762.50;5030778;28;20021;-78
2021/07/09 03:19:51;;;;;;;5.43;4.43;;;;;;;23.38;71.37;97758.81;5030981;28;20367;-76
2021/07/09 03:22:16;;;;;;;9.10;3.90;;;;;;;23.36;72.36;97769.59;5031655;28;20030;-78
2021/07/09 03:24:43;;;;;;;4.43;2.70;;;;;;;23.39;72.33;97774.44;5030602;28;20032;-77
2021/07/09 03:27:08;;;;;;;9.63;4.13;;;;;;;23.34;71.85;97763.56;5030621;28;20116;-77
2021/07/09 03:29:33;;;;;;;3.17;2.83;;;;;;;23.32;72.42;97777.13;5032151;28;20113;-77
2021/07/09 03:31:59;;;;;;;5.05;3.22;;;;;;;23.30;71.52;97775.91;5031724;28;20038;-77
2021/07/09 03:34:24;;;;;;;3.40;2.55;;;;;;;23.25;71.63;97774.25;5030888;28;20494;-79
2021/07/09 03:36:51;;;;;;;5.70;3.17;;;;;;;23.24;71.45;97772.63;5031893;28;20033;-74
2021/07/09 03:39:17;;;;;;;3.75;2.72;;;;;;;23.27;71.45;97776.66;5013106;28;20040;-74
2021/07/09 03:41:43;;;;;;;6.00;4.82;;;;;;;23.30;70.85;97776.72;5036471;28;20025;-75
2021/07/09 03:44:09;;;;;;;2.97;2.60;;;;;;;23.37;70.06;97776.75;5031964;28;20500;-75
2021/07/09 03:46:35;;;;;;;5.65;2.80;;;;;;;23.40;68.18;97781.59;5031864;28;20478;-73
2021/07/09 03:49:02;;;;;;;3.55;2.65;;;;;;;23.44;68.02;97781.66;5031353;28;20597;-74
2021/07/09 03:51:28;;;;;;;2.78;2.00;;;;;;;23.42;68.05;97779.25;5031274;28;20060;-74
2021/07/09 03:53:54;;;;;;;6.53;2.92;;;;;;;23.41;67.64;97783.22;5031528;28;20014;-74
2021/07/09 03:56:24;;;;;;;4.50;2.22;;;;;;;23.47;67.43;97786.47;5031508;28;20039;-74
2021/07/09 03:58:50;;;;;;;6.75;2.45;;;;;;;23.64;67.47;97785.03;5031591;28;20052;-74
2021/07/09 04:01:15;;;;;;;3.60;2.17;;;;;;;23.77;66.18;97784.38;5031171;28;20470;-73
2021/07/09 04:03:41;;;;;;;4.57;1.85;;;;;;;23.95;65.33;97785.31;5039407;28;20029;-75
2021/07/09 04:06:06;;;;;;;10.63;2.70;;;;;;;24.10;64.47;97786.22;5051566;28;20512;-78
2021/07/09 04:08:31;;;;;;;2.67;1.80;;;;;;;24.23;63.73;97789.53;5050794;28;20037;-76
2021/07/09 04:10:57;;;;;;;3.92;2.15;;;;;;;24.23;64.02;97784.75;5051299;28;20033;-76
2021/07/09 04:13:22;;;;;;;2.47;1.98;;;;;;;24.29;63.47;97785.97;5051506;28;20036;-74
2021/07/09 04:15:48;;;;;;;3.80;2.10;;;;;;;24.36;63.08;97793.63;5051368;28;20025;-73
2021/07/09 04:18:13;;;;;;;2.70;2.28;;;;;;;24.42;62.28;97790.06;5032547;28;20033;-79
2021/07/09 04:20:38;;;;;;;2.97;1.77;;;;;;;24.50;62.75;97794.50;5051214;28;20036;-74
2021/07/09 04:23:04;;;;;;;2.65;1.60;;;;;;;24.63;61.92;97802.56;5051032;28;20495;-74
2021/07/09 04:25:29;;;;;;;1.88;1.55;;;;;;;24.76;60.78;97804.63;5051082;28;20066;-74
2021/07/09 04:27:55;;;;;;;2.25;1.55;;;;;;;24.82;61.14;97805.09;5050982;28;20028;-73
2021/07/09 04:30:20;;;;;;;3.72;1.65;;;;;;;25.00;59.82;97801.16;5051374;28;20029;-78
2021/07/09 04:32:46;;;;;;;1.33;1.20;;;;;;;25.12;58.15;97802.81;5051429;28;20056;-75
2021/07/09 04:35:12;;;;;;;1.95;1.50;;;;;;;25.21;58.97;97803.25;5049849;28;20494;-74
2021/07/09 04:37:37;;;;;;;2.53;1.25;;;;;;;25.32;58.73;97804.06;5050493;28;20025;-77
2021/07/09 04:40:04;;;;;;;3.58;1.45;;;;;;;25.27;58.58;97809.25;5050976;28;20028;-74
2021/07/09 04:42:30;;;;;;;0.85;0.85;;;;;;;25.27;57.80;97815.66;5050782;28;20029;-73
2021/07/09 04:44:55;;;;;;;2.65;1.60;;;;;;;25.16;59.01;97811.22;5050729;28;20033;-78
2021/07/09 04:47:21;;;;;;;1.98;1.20;;;;;;;25.00;58.75;97820.75;5032660;28;20024;-78
2021/07/09 04:49:46;;;;;;;2.17;1.48;;;;;;;24.81;58.20;97818.28;5032595;28;20123;-83
2021/07/09 04:52:12;;;;;;;1.38;1.27;;;;;;;24.77;59.65;97823.03;5050061;28;20040;-76
2021/07/09 04:54:37;;;;;;;1.73;1.25;;;;;;;24.81;59.32;97826.66;5050599;28;20442;-74
2021/07/09 04:57:03;;;;;;;1.33;1.23;;;;;;;24.81;59.74;97825.84;5050002;28;20025;-74
2021/07/09 04:59:28;;;;;;;3.83;1.35;;;;;;;24.81;60.52;97825.84;5049734;28;20488;-74
2021/07/09 05:01:54;;;;;;;2.78;1.20;;;;;;;24.80;60.29;97829.84;5050513;28;20147;-74
2021/07/09 05:04:19;;;;;;;2.30;1.35;;;;;;;24.77;60.04;97836.22;5050195;28;20032;-74
2021/07/09 05:06:44;;;;;;;1.80;1.55;;;;;;;24.72;59.16;97830.97;5032890;28;20112;-73
2021/07/09 05:09:10;;;;;;;1.85;1.38;;;;;;;24.64;59.38;97832.13;5050649;28;20036;-75
2021/07/09 05:11:37;;;;;;;2.70;1.23;;;;;;;24.61;59.45;97838.53;5054703;28;20536;-74
2021/07/09 05:14:03;;;;;;;2.15;1.50;;;;;;;24.58;60.16;97836.50;5032298;28;20473;-75
2021/07/09 05:16:28;;;;;;;2.13;0.90;;;;;;;24.67;58.63;97834.97;5050589;28;20029;-73
2021/07/09 05:18:56;;;;;;;2.10;1.40;;;;;;;24.76;58.40;97834.59;5050593;28;20067;-74
2021/07/09 05:21:21;;;;;;;3.67;1.20;;;;;;;24.76;59.41;97840.19;5050535;28;20029;-74
2021/07/09 05:23:47;;;;;;;3.45;1.20;;;;;;;24.76;58.78;97841.00;5051104;28;20025;-73
2021/07/09 05:26:12;;;;;;;2.03;1.13;;;;;;;24.74;58.41;97846.22;5055762;28;20021;-75
2021/07/09 05:28:38;;;;;;;1.60;1.00;;;;;;;24.69;58.53;97852.16;5054479;28;20025;-77
2021/07/09 05:31:03;;;;;;;3.55;1.33;;;;;;;24.68;59.87;97850.56;5050979;28;20115;-75
2021/07/09 05:33:29;;;;;;;4.45;1.25;;;;;;;24.67;59.71;97860.16;5050559;28;20032;-73
2021/07/09 05:35:54;;;;;;;1.08;1.00;;;;;;;24.59;59.38;97854.91;5050282;28;20036;-73
2021/07/09 05:38:20;;;;;;;1.45;1.13;;;;;;;24.44;57.82;97852.00;5050426;28;20028;-75
2021/07/09 05:40:45;;;;;;;3.58;1.23;;;;;;;24.47;59.29;97856.81;5050532;28;20207;-74
2021/07/09 05:43:11;;;;;;;1.48;1.30;;;;;;;24.53;58.97;97858.06;5051099;28;20119;-76
2021/07/09 05:45:36;;;;;;;2.28;0.90;;;;;;;24.57;58.95;97860.06;5051847;28;20037;-74
2021/07/09 05:48:02;;;;;;;1.23;1.05;;;;;;;24.56;60.28;97864.84;5037720;28;20075;-75
2021/07/09 05:50:51;;;;;;;2.17;1.30;;;;;;;24.63;58.53;97869.69;5054328;28;20040;-74
2021/07/09 05:53:17;;;;;;;0.95;0.90;;;;;;;24.77;56.92;97859.41;5050669;28;20082;-75
2021/07/09 05:55:43;;;;;;;3.00;1.40;;;;;;;24.93;57.25;97864.72;5048277;28;20515;-74
2021/07/09 05:58:09;;;;;;;2.38;0.93;;;;;;;24.90;56.54;97868.31;5031803;28;20039;-74
2021/07/09 06:00:35;;;;;;;6.03;0.98;;;;;;;24.93;56.94;97871.13;5032069;28;20021;-75
2021/07/09 06:03:01;;;;;;;3.15;1.10;;;;;;;25.01;56.49;97880.34;5050627;28;20029;-77
2021/07/09 06:05:26;;;;;;;1.95;1.05;;;;;;;25.03;55.65;97883.56;5036928;28;20029;-75
2021/07/09 06:07:52;;;;;;;1.73;1.15;;;;;;;24.97;55.41;97883.13;5055130;28;20025;-75
2021/07/09 06:10:17;;;;;;;1.55;0.88;;;;;;;24.97;55.71;97877.53;5053912;28;20039;-75
2021/07/09 06:12:42;;;;;;;2.63;1.15;;;;;;;24.96;55.60;97881.56;5053989;28;20474;-76
2021/07/09 06:15:08;;;;;;;2.72;1.13;;;;;;;24.95;55.41;97881.94;5035785;28;20519;-74
2021/07/09 06:17:34;;;;;;;2.17;1.15;;;;;;;24.96;55.29;97878.75;5053514;28;20136;-74
2021/07/09 06:19:59;;;;;;;1.88;0.93;;;;;;;24.99;53.79;97879.97;5054043;28;20049;-75
2021/07/09 06:22:25;;;;;;;1.27;0.80;;;;;;;25.05;53.15;97875.59;5053846;28;20099;-74
2021/07/09 06:24:50;;;;;;;2.03;0.80;;;;;;;25.05;53.48;97881.19;5054155;28;20035;-78
2021/07/09 06:27:16;;;;;;;1.20;1.10;;;;;;;25.03;52.68;97880.75;5054565;28;20075;-74
2021/07/09 06:29:41;;;;;;;2.72;0.80;;;;;;;24.99;53.33;97882.75;5054491;28;20358;-78
2021/07/09 06:32:07;;;;;;;2.28;0.60;;;;;;;24.97;53.03;97885.13;5053218;28;20028;-75
2021/07/09 06:34:34;;;;;;;1.30;1.20;;;;;;;25.08;54.04;97886.00;5052944;28;20049;-75
2021/07/09 06:36:59;;;;;;;1.20;0.70;;;;;;;25.09;53.42;97887.63;5035127;28;20107;-75
2021/07/09 06:39:25;;;;;;;2.40;0.90;;;;;;;25.12;52.53;97884.03;5035154;28;20025;-75
2021/07/09 06:41:51;;;;;;;0.73;0.70;;;;;;;25.22;51.62;97885.25;5053278;28;20025;-76
2021/07/09 06:44:16;;;;;;;5.47;0.90;;;;;;;25.34;51.89;97882.91;5053109;28;20377;-76
2021/07/09 06:46:43;;;;;;;2.00;0.90;;;;;;;25.41;51.99;97887.72;5052914;28;20029;-78
2021/07/09 06:49:09;;;;;;;1.30;1.20;;;;;;;25.55;51.05;97893.44;5052939;28;20044;-76
2021/07/09 06:51:35;;;;;;;0.70;0.68;;;;;;;25.58;50.61;97880.63;5053125;28;20029;-74
2021/07/09 06:54:00;;;;;;;1.55;0.90;;;;;;;25.62;51.41;97884.25;5052974;28;20083;-75
2021/07/09 06:56:26;;;;;;;0.77;0.77;;;;;;;25.69;49.26;97876.63;5053027;28;20029;-75
2021/07/09 06:58:51;;;;;;;1.75;0.68;;;;;;;25.82;49.36;97891.09;5053181;28;20469;-74
2021/07/09 07:01:16;;;;;;;1.48;0.85;;;;;;;26.01;46.59;97893.53;5035168;28;20470;-74
2021/07/09 07:03:42;;;;;;;1.25;0.93;;;;;;;26.13;47.77;97895.94;5034346;28;20044;-76
2021/07/09 07:06:10;;;;;;;3.10;0.98;;;;;;;26.26;47.76;97899.19;5051966;28;20489;-75
2021/07/09 07:08:36;;;;;;;2.92;1.00;;;;;;;26.38;46.14;97908.00;5052522;28;20029;-76
2021/07/09 07:11:02;;;;;;;1.45;0.88;;;;;;;26.37;47.76;97912.03;5052645;28;20025;-75
2021/07/09 07:13:27;;;;;;;4.05;0.70;;;;;;;26.19;46.83;97905.59;5052337;28;20032;-75
2021/07/09 07:15:53;;;;;;;1.98;0.70;;;;;;;26.07;46.90;97903.16;5052431;28;20328;-75
2021/07/09 07:18:19;;;;;;;1.80;1.17;;;;;;;25.94;46.99;97904.72;5052377;28;20033;-74
2021/07/09 07:20:46;;;;;;;0.85;0.57;;;;;;;25.95;48.80;97907.13;5052508;28;20358;-74
2021/07/09 07:23:15;;;;;;;2.15;0.60;;;;;;;26.11;47.59;97903.97;5034491;28;20039;-75
2021/07/09 07:25:41;;;;;;;1.45;0.80;;;;;;;26.35;46.79;97913.59;5052383;28;20432;-74
2021/07/09 07:28:08;;;;;;;1.85;0.85;;;;;;;26.48;47.91;97903.59;5052262;28;20037;-74
2021/07/09 07:30:34;;;;;;;0.93;0.82;;;;;;;26.54;46.22;97900.00;5052832;28;20084;-75
2021/07/09 07:33:00;;;;;;;1.08;0.75;;;;;;;26.71;46.49;97903.19;5052230;28;20024;-75
2021/07/09 07:35:26;;;;;;;1.02;0.70;;;;;;;26.82;46.72;97910.41;5033366;28;20389;-74
2021/07/09 07:37:52;;;;;;;2.33;0.88;;;;;;;26.92;44.72;97898.34;5051161;28;20119;-75
2021/07/09 07:40:17;;;;;;;1.52;1.00;;;;;;;27.05;46.46;97907.16;5033249;28;20350;-75
2021/07/09 07:42:44;;;;;;;1.08;0.95;;;;;;;27.15;46.41;97911.94;5052404;28;20477;-74
2021/07/09 07:45:10;;;;;;;2.92;1.70;;;;;;;27.14;45.48;97916.75;5050826;28;20409;-74
2021/07/09 07:47:36;;;;;;;0.75;0.60;;;;;;;27.15;45.80;97906.34;5033804;28;20067;-74
2021/07/09 07:50:02;;;;;;;0.70;0.70;;;;;;;27.15;44.88;97914.75;5033328;28;20116;-74
2021/07/09 07:52:28;;;;;;;0.50;0.50;;;;;;;27.14;43.37;97918.75;5032456;28;20021;-73
2021/07/09 07:54:53;;;;;;;1.20;1.00;;;;;;;27.24;44.12;97920.75;5050411;28;20024;-72
2021/07/09 07:57:19;;;;;;;2.95;0.80;;;;;;;27.34;44.27;97916.31;5031317;28;20518;-73
2021/07/09 07:59:45;;;;;;;0.82;0.73;;;;;;;27.45;43.48;97915.06;5049395;28;20112;-74
2021/07/09 08:02:11;;;;;;;0.82;0.82;;;;;;;27.56;42.81;97915.84;5031057;28;20175;-74
2021/07/09 08:04:36;;;;;;;1.08;0.98;;;;;;;27.70;42.61;97909.34;5030745;28;20040;-74
2021/07/09 08:07:05;;;;;;;3.45;0.77;;;;;;;27.79;42.12;97906.06;5049193;28;20017;-75
2021/07/09 08:09:32;;;;;;;1.20;0.63;;;;;;;27.93;42.62;97903.19;5049243;28;20017;-74
2021/07/09 08:12:01;;;;;;;0.88;0.80;;;;;;;28.05;41.16;97897.09;5050156;28;20017;-75
2021/07/09 08:14:27;;;;;;;1.77;0.70;;;;;;;28.16;41.02;97903.47;5049649;28;20025;-77
2021/07/09 08:16:53;;;;;;;2.60;0.90;;;;;;;28.32;41.58;97900.91;5029837;28;20517;-74
2021/07/09 08:19:20;;;;;;;0.63;0.60;;;;;;;28.27;40.19;97904.19;5050298;28;20105;-75
2021/07/09 08:21:46;;;;;;;1.00;0.65;;;;;;;28.19;40.23;97913.91;5050867;28;20471;-73
2021/07/09 08:24:18;;;;;;;1.33;1.10;;;;;;;28.25;41.84;97912.25;5051444;28;20032;-74
2021/07/09 08:26:46;;;;;;;3.60;1.05;;;;;;;28.31;39.80;97913.41;5051221;28;20115;-76
2021/07/09 08:29:11;;;;;;;1.60;0.63;;;;;;;28.34;39.20;97909.75;5045334;28;20478;-77
2021/07/09 08:31:37;;;;;;;1.90;0.70;;;;;;;28.42;39.66;97911.28;5049735;28;20032;-75
2021/07/09 08:34:03;;;;;;;2.00;0.63;;;;;;;28.50;39.92;97912.06;5024303;28;20396;-73
2021/07/09 08:36:28;;;;;;;3.17;1.38;;;;;;;28.55;38.97;97909.59;5046193;28;20013;-74
2021/07/09 08:38:54;;;;;;;3.85;1.13;;;;;;;28.63;38.52;97904.69;5040275;28;20499;-74
2021/07/09 08:41:20;;;;;;;1.92;0.75;;;;;;;28.74;38.02;97901.78;5038053;28;20759;-74
2021/07/09 08:43:46;;;;;;;1.75;0.90;;;;;;;28.94;38.16;97908.44;5021264;28;20616;-73
2021/07/09 08:46:13;;;;;;;0.52;0.52;;;;;;;28.81;38.15;97901.72;5040512;28;20366;-75
2021/07/09 08:48:40;;;;;;;2.33;1.00;;;;;;;28.90;37.64;97908.47;5046867;28;20044;-73
2021/07/09 08:51:06;;;;;;;4.43;0.90;;;;;;;28.93;37.86;97906.84;5044507;28;20505;-74
2021/07/09 08:53:32;;;;;;;4.50;0.98;;;;;;;29.16;37.05;97907.00;5037582;28;20037;-74
2021/07/09 08:55:57;;;;;;;3.33;1.00;;;;;;;29.27;37.19;97910.53;5038548;28;20089;-72
2021/07/09 08:58:23;;;;;;;2.53;0.80;;;;;;;29.45;35.35;97918.75;5038029;28;20064;-72
2021/07/09 09:00:49;;;;;;;2.30;1.27;;;;;;;29.50;34.85;97913.47;5040861;28;20036;-72
2021/07/09 09:03:26;;;;;;;1.45;0.73;;;;;;;29.31;35.38;97911.28;5035885;28;20096;-73
2021/07/09 09:06:00;;;;;;;2.45;1.38;;;;;;;29.55;33.66;97906.56;5038108;28;20489;-73
2021/07/09 09:08:28;;;;;;;0.68;0.68;;;;;;;29.40;33.77;97905.94;5037567;28;20024;-73
2021/07/09 09:10:58;;;;;;;1.98;1.00;;;;;;;29.32;34.71;97912.88;5046746;28;20060;-74
2021/07/09 09:13:35;;;;;;;1.13;0.90;;;;;;;29.30;33.14;97912.50;5049161;28;20028;-73
2021/07/09 09:16:04;;;;;;;0.70;0.45;;;;;;;29.18;34.16;97915.84;5047482;28;20108;-73
2021/07/09 09:18:35;;;;;;;1.48;0.98;;;;;;;28.96;34.05;97914.47;5048490;28;20365;-73
2021/07/09 09:21:02;;;;;;;2.05;0.88;;;;;;;28.90;33.70;97914.13;5048676;28;20025;-73
2021/07/09 09:23:31;;;;;;;1.45;0.85;;;;;;;28.98;33.65;97914.81;5048822;28;20029;-73
2021/07/09 09:25:57;;;;;;;0.55;0.52;;;;;;;28.05;35.29;97914.78;5048820;28;20450;-73
2021/07/09 09:28:22;;;;;;;2.33;0.45;;;;;;;28.05;35.51;97930.88;5049009;28;20017;-74
2021/07/09 09:30:55;;;;;;;1.65;0.95;;;;;;;28.36;35.80;97929.84;5031613;28;20021;-73
2021/07/09 09:33:30;;;;;;;1.55;0.90;;;;;;;28.42;35.47;97928.19;5044682;28;20082;-72
2021/07/09 09:35:56;;;;;;;;;;;;;;;28.64;34.88;97923.19;5042636;28;20021;-72
2021/07/09 09:38:26;;;;;;;;;;;;;;;28.72;35.08;97926.78;5052026;28;20275;-72
2021/07/09 09:40:51;;;;;;;2.17;0.63;;;;;;;28.38;35.28;97921.78;5047532;28;19958;-73
2021/07/09 09:43:22;;;;;;;0.70;0.70;;;;;;;28.46;34.92;97922.53;5047289;28;20025;-73
2021/07/09 09:45:57;;;;;;;3.15;1.15;;;;;;;28.54;34.27;97929.69;5045571;28;20032;-73
2021/07/09 09:48:22;;;;;;;2.05;0.70;;;;;;;28.62;33.75;97926.41;5040526;28;20045;-74
2021/07/09 09:50:51;;;;;;;0.93;0.60;;;;;;;28.50;34.29;97935.38;5044419;28;20070;-72
2021/07/09 09:53:31;;;;;;;0.68;0.55;;;;;;;28.58;33.86;97941.72;5041093;28;20493;-74
2021/07/09 09:56:05;;;;;;;1.63;0.75;;;;;;;28.46;34.13;97948.66;5049915;28;20090;-80
2021/07/09 09:58:31;;;;;;;1.85;0.82;;;;;;;28.41;34.02;97948.31;5051693;28;20366;-78
2021/07/09 10:00:56;;;;;;;1.33;0.65;;;;;;;28.60;32.86;97945.72;5052430;28;20048;-77
2021/07/09 10:03:22;;;;;;;0.68;0.68;;;;;;;28.70;32.74;97938.44;5041921;28;20051;-77
2021/07/09 10:05:49;;;;;;;1.63;0.70;;;;;;;28.73;33.14;97936.81;5040499;28;20060;-78
2021/07/09 10:08:17;;;;;;;2.38;0.90;;;;;;;28.78;33.42;97944.81;5040795;28;20103;-77
2021/07/09 10:10:44;;;;;;;1.85;0.90;;;;;;;28.67;33.81;97934.44;5050274;28;20029;-77
2021/07/09 10:13:18;;;;;;;1.50;0.90;;;;;;;28.75;34.48;97940.81;5032882;28;20052;-77
2021/07/09 10:15:48;;;;;;;1.67;0.75;;;;;;;28.44;35.14;97928.59;5051333;28;20101;-78
2021/07/09 10:18:15;;;;;;;0.75;0.70;;;;;;;28.47;34.87;97930.56;5048855;28;20032;-78
2021/07/09 10:20:45;;;;;;;0.80;0.73;;;;;;;28.42;35.34;97928.19;5032904;28;20493;-78
2021/07/09 10:23:13;;;;;;;1.10;0.80;;;;;;;28.73;34.07;97922.72;5031397;28;20477;-77
2021/07/09 10:25:39;;;;;;;0.90;0.70;;;;;;;28.54;34.90;97930.50;5050481;28;20485;-78
2021/07/09 10:28:08;;;;;;;1.05;0.70;;;;;;;28.92;34.07;97922.13;5032961;28;20063;-78
2021/07/09 10:30:40;;;;;;;1.92;0.98;;;;;;;29.17;34.21;97923.47;5048952;28;20108;-77
2021/07/09 10:33:31;;;;;;;3.50;0.90;;;;;;;29.30;33.60;97925.78;5033132;28;20783;-76
2021/07/09 10:35:59;;;;;;;1.83;0.73;;;;;;;29.30;33.64;97920.94;5024059;28;20116;-77
2021/07/09 10:38:35;;;;;;;1.70;1.05;;;;;;;28.98;34.05;97921.28;5031305;28;20033;-79
2021/07/09 10:41:30;;;;;;;3.20;1.25;;;;;;;29.12;34.26;97935.22;5034577;28;20018;-77
2021/07/09 10:44:15;;;;;;;1.27;0.68;;;;;;;28.58;34.45;97931.28;5011712;28;20725;-77
2021/07/09 10:46:41;;;;;;;1.38;0.47;;;;;;;28.77;34.39;97931.94;5046312;28;20029;-78
2021/07/09 10:49:07;;;;;;;2.10;0.60;;;;;;;28.48;34.32;97925.72;5044194;28;20029;-77
2021/07/09 10:51:52;;;;;;;0.65;0.65;;;;;;;28.63;34.43;97930.03;5047548;28;20029;-79
2021/07/09 10:54:29;;;;;;;1.98;0.93;;;;;;;28.63;34.89;97925.19;5044516;28;20570;-79
2021/07/09 10:57:17;;;;;;;2.05;0.60;;;;;;;28.58;34.64;97924.84;5045235;28;20048;-77
2021/07/09 11:00:20;;;;;;;1.17;0.60;;;;;;;28.47;35.45;97929.78;5049517;28;20029;-77
2021/07/09 11:03:04;;;;;;;1.33;0.63;;;;;;;28.35;34.13;97927.47;5038712;28;20056;-75
2021/07/09 11:05:42;;;;;;;0.63;0.60;;;;;;;28.42;34.16;97928.19;5033748;28;20025;-78
2021/07/09 11:08:32;;;;;;;0.93;0.93;;;;;;;28.33;33.77;97918.59;5053388;28;20025;-76
2021/07/09 11:11:06;;;;;;;0.57;0.30;;;;;;;28.40;34.21;97913.72;5052430;28;20028;-77
2021/07/09 11:13:40;;;;;;;1.05;0.63;;;;;;;28.60;33.43;97923.19;5053426;28;20021;-77
2021/07/09 11:16:26;;;;;;;1.57;1.03;;;;;;;28.60;32.16;97920.38;5053306;28;20095;-77
2021/07/09 11:19:07;;;;;;;1.52;0.70;;;;;;;28.50;31.81;97912.84;5049409;28;20028;-76
2021/07/09 11:21:33;;;;;;;9.82;2.25;;;;;;;28.35;33.25;97911.34;5030767;28;20099;-78
2021/07/09 11:24:04;;;;;;;2.80;1.33;;;;;;;28.33;33.99;97912.97;5047590;28;20024;-78
2021/07/09 11:26:33;;;;;;;4.95;0.80;;;;;;;28.52;34.73;97918.84;5049804;28;20440;-77
2021/07/09 11:28:59;;;;;;;3.78;0.73;;;;;;;28.73;34.08;97919.91;5039454;28;20037;-77
2021/07/09 11:31:35;;;;;;;1.33;0.60;;;;;;;28.95;32.46;97924.13;5047923;28;20021;-77
2021/07/09 11:34:00;;;;;;;1.95;0.65;;;;;;;28.97;33.26;97925.31;5029622;28;20037;-77
2021/07/09 11:36:26;;;;;;;0.65;0.57;;;;;;;28.80;33.30;97929.09;5031198;28;20029;-77